Terminal Aerodrome Forecast
Issued by NWS

Current Version | Previous Version | Text Only | Print | Product List | Glossary Off
Versions: 1 2 3 4 5 6 7 8 9 10 11 12 13 14 15 16 17 18 19 20 21 22 23 24 25

000
FTUS41 KRLX 131700
TAFCKB
TAF
KCKB 131739Z 1318/1418 23011G21KT P6SM SCT040 SCT150
      TEMPO 1320/1321 VRB15G25KT 2SM -TSRA BKN030CB
     FM132100 23008KT P6SM VCTS BKN035CB
     FM132300 23005KT 4SM SHRA VCTS BKN040CB
     FM141000 20004KT 4SM TSRA OVC030CB
     FM141500 23005KT P6SM SHRA VCTS BKN120CB=

USA.gov is the U.S. government's official web portal to all federal, state and local government web resources and services.